Time;durP1;ratioP1;P1;durP2;ratioP2;P2;SDS_P1;SDS_P2;PMS_P1;PMS_P2;Temp;Humidity;BMP_temperature;BMP_pressure;BME280_temperature;BME280_humidity;BME280_pressure;Samples;Min_cycle;Max_cycle;Signal;HPM_P1;HPM_P2
2024/02/02 00:02:26;;;;;;;11.80;2.25;;;;;;;;;;5000870;28;20060;-66
2024/02/02 00:04:53;;;;;;;8.88;2.45;;;;;;;;;;5005406;28;20046;-65
2024/02/02 00:07:20;;;;;;;14.50;2.70;;;;;;;;;;4996569;28;21950;-65
2024/02/02 00:09:47;;;;;;;8.93;2.30;;;;;;;;;;4998878;28;20065;-65
2024/02/02 00:12:15;;;;;;;8.13;2.17;;;;;;;;;;5001211;28;20065;-64
2024/02/02 00:14:42;;;;;;;9.75;2.25;;;;;;;;;;4993257;28;20054;-65
2024/02/02 00:17:10;;;;;;;13.60;2.35;;;;;;;;;;4980087;28;20074;-65
2024/02/02 00:19:37;;;;;;;13.48;2.63;;;;;;;;;;4990005;28;20062;-64
2024/02/02 00:22:04;;;;;;;9.10;2.70;;;;;;;;;;4990011;28;20057;-64
2024/02/02 00:24:31;;;;;;;9.00;2.08;;;;;;;;;;4997230;28;20057;-64
2024/02/02 00:26:59;;;;;;;9.85;2.35;;;;;;;;;;4992317;28;20042;-65
2024/02/02 00:29:28;;;;;;;;;;;;;;;;;;4981475;28;20053;-64
2024/02/02 00:31:55;;;;;;;11.40;3.67;;;;;;;;;;4994790;28;19925;-65
2024/02/02 00:34:22;;;;;;;13.75;3.75;;;;;;;;;;4996647;28;20081;-64
2024/02/02 00:36:49;;;;;;;11.23;2.67;;;;;;;;;;4998296;28;20150;-64
2024/02/02 00:39:19;;;;;;;9.30;2.22;;;;;;;;;;4988615;28;20309;-64
2024/02/02 00:41:45;;;;;;;14.10;2.50;;;;;;;;;;4993654;28;20101;-65
2024/02/02 00:44:12;;;;;;;9.27;2.50;;;;;;;;;;4987317;28;20061;-65
2024/02/02 00:46:41;;;;;;;17.55;2.88;;;;;;;;;;4989780;28;20038;-65
2024/02/02 00:49:07;;;;;;;11.43;2.92;;;;;;;;;;4988665;28;20136;-66
2024/02/02 00:51:34;;;;;;;6.80;2.75;;;;;;;;;;4986978;28;20045;-65
2024/02/02 00:54:01;;;;;;;12.27;2.95;;;;;;;;;;4991137;28;20045;-64
2024/02/02 00:56:28;;;;;;;9.60;2.60;;;;;;;;;;4990266;28;20046;-65
2024/02/02 00:58:55;;;;;;;11.20;2.35;;;;;;;;;;4985276;28;20057;-65
2024/02/02 01:01:25;;;;;;;8.15;2.47;;;;;;;;;;4985147;28;20054;-64
2024/02/02 01:03:53;;;;;;;11.60;2.45;;;;;;;;;;4986279;28;20060;-65
2024/02/02 01:06:21;;;;;;;11.77;2.42;;;;;;;;;;4995081;28;20069;-64
2024/02/02 01:08:49;;;;;;;10.35;2.22;;;;;;;;;;4989705;28;20054;-64
2024/02/02 01:11:16;;;;;;;12.10;2.05;;;;;;;;;;4987794;28;21558;-64
2024/02/02 01:13:43;;;;;;;16.35;2.95;;;;;;;;;;4985396;28;20046;-65
2024/02/02 01:16:09;;;;;;;8.50;2.63;;;;;;;;;;4995232;28;20078;-65
2024/02/02 01:18:36;;;;;;;10.48;2.50;;;;;;;;;;4995729;28;20085;-65
2024/02/02 01:21:07;;;;;;;10.35;2.15;;;;;;;;;;4993000;28;20057;-65
2024/02/02 01:23:34;;;;;;;12.20;3.05;;;;;;;;;;4983045;28;20064;-65
2024/02/02 01:26:01;;;;;;;9.10;2.05;;;;;;;;;;4990224;28;20050;-65
2024/02/02 01:28:29;;;;;;;13.85;2.53;;;;;;;;;;4997838;28;20172;-64
2024/02/02 01:30:56;;;;;;;15.68;2.20;;;;;;;;;;4996898;28;20065;-64
2024/02/02 01:33:26;;;;;;;15.95;2.47;;;;;;;;;;4994228;28;20059;-64
2024/02/02 01:35:53;;;;;;;13.18;2.38;;;;;;;;;;4999945;28;20085;-65
2024/02/02 01:38:21;;;;;;;7.50;2.15;;;;;;;;;;4995867;28;20127;-65
2024/02/02 01:40:48;;;;;;;11.80;2.10;;;;;;;;;;4995756;28;20062;-65
2024/02/02 01:43:15;;;;;;;8.85;2.40;;;;;;;;;;4990016;28;20145;-65
2024/02/02 01:45:42;;;;;;;12.73;2.10;;;;;;;;;;4998082;28;20049;-65
2024/02/02 01:48:09;;;;;;;14.32;2.65;;;;;;;;;;4986229;28;20054;-65
2024/02/02 01:50:36;;;;;;;7.03;2.13;;;;;;;;;;4988434;28;20050;-64
2024/02/02 01:53:03;;;;;;;8.27;1.85;;;;;;;;;;4984742;28;20038;-66
2024/02/02 01:55:32;;;;;;;8.95;2.00;;;;;;;;;;4986432;28;20077;-67
2024/02/02 01:57:58;;;;;;;11.38;2.50;;;;;;;;;;4996297;28;20061;-66
2024/02/02 02:00:25;;;;;;;11.05;2.20;;;;;;;;;;4996702;28;20062;-67
2024/02/02 02:02:52;;;;;;;14.32;2.17;;;;;;;;;;4985781;28;20058;-67
2024/02/02 02:05:19;;;;;;;7.28;2.13;;;;;;;;;;4987938;28;20153;-66
2024/02/02 02:07:46;;;;;;;15.93;2.88;;;;;;;;;;4990882;28;20069;-67
2024/02/02 02:10:14;;;;;;;12.35;2.60;;;;;;;;;;4996590;28;20054;-64
2024/02/02 02:12:42;;;;;;;15.50;2.67;;;;;;;;;;4989233;28;20057;-65
2024/02/02 02:15:10;;;;;;;16.00;2.53;;;;;;;;;;5000847;28;20057;-65
2024/02/02 02:17:37;;;;;;;9.68;2.22;;;;;;;;;;4994975;28;20159;-67
2024/02/02 02:20:11;;;;;;;13.68;2.25;;;;;;;;;;4997080;28;20061;-64
2024/02/02 02:22:39;;;;;;;13.70;2.85;;;;;;;;;;4980625;28;20092;-65
2024/02/02 02:25:07;;;;;;;17.98;2.35;;;;;;;;;;4991812;28;20060;-66
2024/02/02 02:27:34;;;;;;;12.83;2.20;;;;;;;;;;4996257;28;20081;-65
2024/02/02 02:30:02;;;;;;;12.43;2.70;;;;;;;;;;4994552;28;20144;-67
2024/02/02 02:32:28;;;;;;;10.93;2.33;;;;;;;;;;4985017;28;20062;-67
2024/02/02 02:34:56;;;;;;;8.48;2.13;;;;;;;;;;4984230;28;20158;-65
2024/02/02 02:37:23;;;;;;;11.68;2.47;;;;;;;;;;4987429;28;21080;-64
2024/02/02 02:39:51;;;;;;;10.25;2.05;;;;;;;;;;4996529;28;20054;-65
2024/02/02 02:42:18;;;;;;;14.18;2.85;;;;;;;;;;4988170;28;20061;-65
2024/02/02 02:44:45;;;;;;;12.07;2.83;;;;;;;;;;5009901;28;20066;-65
2024/02/02 02:47:12;;;;;;;15.15;2.70;;;;;;;;;;4993236;28;20065;-65
2024/02/02 02:49:39;;;;;;;11.38;2.97;;;;;;;;;;4991898;28;20132;-65
2024/02/02 02:52:07;;;;;;;12.52;2.65;;;;;;;;;;4993148;28;20069;-64
2024/02/02 02:54:33;;;;;;;10.32;2.40;;;;;;;;;;4992606;28;20183;-65
2024/02/02 02:57:02;;;;;;;13.55;2.70;;;;;;;;;;4990167;28;20069;-65
2024/02/02 02:59:30;;;;;;;10.98;3.05;;;;;;;;;;4990385;28;20057;-65
2024/02/02 03:01:57;;;;;;;6.32;2.30;;;;;;;;;;4955108;28;20062;-64
2024/02/02 03:04:23;;;;;;;12.07;2.38;;;;;;;;;;4969849;28;20054;-65
2024/02/02 03:06:49;;;;;;;11.13;2.85;;;;;;;;;;4963334;28;20074;-65
2024/02/02 03:09:16;;;;;;;10.63;2.90;;;;;;;;;;4966569;28;20086;-65
2024/02/02 03:11:43;;;;;;;12.68;3.05;;;;;;;;;;4950649;28;20054;-65
2024/02/02 03:14:12;;;;;;;12.05;2.78;;;;;;;;;;4970899;28;20070;-64
2024/02/02 03:16:38;;;;;;;7.18;2.38;;;;;;;;;;4973154;28;20153;-64
2024/02/02 03:19:06;;;;;;;15.23;3.03;;;;;;;;;;4968536;28;20076;-65
2024/02/02 03:21:34;;;;;;;10.32;2.75;;;;;;;;;;4974553;28;20050;-65
2024/02/02 03:24:01;;;;;;;8.73;2.90;;;;;;;;;;4991795;28;20061;-65
2024/02/02 03:26:27;;;;;;;13.88;2.70;;;;;;;;;;4996497;28;20053;-67
2024/02/02 03:28:54;;;;;;;11.85;2.97;;;;;;;;;;4996776;28;20145;-64
2024/02/02 03:31:23;;;;;;;18.95;3.25;;;;;;;;;;4970385;28;20045;-65
2024/02/02 03:33:50;;;;;;;;;;;;;;;;;;5001146;28;20062;-65
2024/02/02 03:36:16;;;;;;;9.18;2.42;;;;;;;;;;4985333;28;19926;-65
2024/02/02 03:38:43;;;;;;;8.73;2.35;;;;;;;;;;4973351;28;20054;-66
2024/02/02 03:41:12;;;;;;;11.50;2.40;;;;;;;;;;4966706;28;20058;-67
2024/02/02 03:43:39;;;;;;;12.23;2.40;;;;;;;;;;4988991;28;20057;-67
2024/02/02 03:46:06;;;;;;;12.02;2.63;;;;;;;;;;4994902;28;20050;-67
2024/02/02 03:48:34;;;;;;;12.38;2.85;;;;;;;;;;4994863;28;20105;-67
2024/02/02 03:51:01;;;;;;;15.18;2.47;;;;;;;;;;4992643;28;20069;-67
2024/02/02 03:53:28;;;;;;;14.00;2.83;;;;;;;;;;4990161;28;20085;-64
2024/02/02 03:55:55;;;;;;;9.82;2.85;;;;;;;;;;4998336;28;20054;-64
2024/02/02 03:58:22;;;;;;;13.25;2.83;;;;;;;;;;4996973;28;20050;-64
2024/02/02 04:00:48;;;;;;;7.20;2.40;;;;;;;;;;4998533;28;20058;-64
2024/02/02 04:03:16;;;;;;;19.45;3.67;;;;;;;;;;4981371;28;20065;-65
2024/02/02 04:05:44;;;;;;;12.63;2.58;;;;;;;;;;4995997;28;20069;-64
2024/02/02 04:11:16;;;;;;;10.02;2.65;;;;;;;;;;4986930;28;20104;-68
2024/02/02 04:13:43;;;;;;;19.13;3.30;;;;;;;;;;4997062;28;20050;-66
2024/02/02 04:16:10;;;;;;;7.20;2.30;;;;;;;;;;5001050;28;20140;-64
2024/02/02 04:18:37;;;;;;;13.18;3.08;;;;;;;;;;4994960;28;20046;-64
2024/02/02 04:21:06;;;;;;;14.07;2.55;;;;;;;;;;4991388;28;20049;-64
2024/02/02 04:23:32;;;;;;;8.55;2.30;;;;;;;;;;4996301;28;20075;-66
2024/02/02 04:25:59;;;;;;;13.32;2.45;;;;;;;;;;4997039;28;20120;-65
2024/02/02 04:28:26;;;;;;;11.88;2.78;;;;;;;;;;4996841;28;20065;-65
2024/02/02 04:30:53;;;;;;;8.35;1.83;;;;;;;;;;4978692;28;20054;-67
2024/02/02 04:33:20;;;;;;;11.52;2.30;;;;;;;;;;4977153;28;20127;-65
2024/02/02 04:35:47;;;;;;;14.55;2.10;;;;;;;;;;4993951;28;20079;-65
2024/02/02 04:38:17;;;;;;;11.25;2.45;;;;;;;;;;4998878;28;20137;-65
2024/02/02 04:40:44;;;;;;;11.38;2.72;;;;;;;;;;4995413;28;20127;-65
2024/02/02 04:43:11;;;;;;;7.38;1.92;;;;;;;;;;4981206;28;20061;-65
2024/02/02 04:45:38;;;;;;;9.23;2.17;;;;;;;;;;4992212;28;20124;-65
2024/02/02 04:48:06;;;;;;;9.38;2.33;;;;;;;;;;4994362;28;20061;-65
2024/02/02 04:50:33;;;;;;;9.73;2.00;;;;;;;;;;4996317;28;20065;-65
2024/02/02 04:52:59;;;;;;;8.93;2.22;;;;;;;;;;4981316;28;20136;-65
2024/02/02 04:55:28;;;;;;;5.72;1.83;;;;;;;;;;4990331;28;20275;-65
2024/02/02 04:57:55;;;;;;;;;;;;;;;;;;4993190;28;20064;-65
2024/02/02 05:00:22;;;;;;;14.82;3.33;;;;;;;;;;4997722;28;19925;-65
2024/02/02 05:02:48;;;;;;;11.07;2.17;;;;;;;;;;4925414;28;20062;-65
2024/02/02 05:05:18;;;;;;;14.98;2.38;;;;;;;;;;4966772;28;20058;-66
2024/02/02 05:07:45;;;;;;;9.95;2.13;;;;;;;;;;4971084;28;20058;-65
2024/02/02 05:10:12;;;;;;;13.65;2.17;;;;;;;;;;4971480;28;20062;-65
2024/02/02 05:12:46;;;;;;;9.30;2.20;;;;;;;;;;4972395;28;20058;-66
2024/02/02 05:15:13;;;;;;;8.00;1.80;;;;;;;;;;4992155;28;20057;-65
2024/02/02 05:17:40;;;;;;;10.73;2.85;;;;;;;;;;4993083;28;20070;-65
2024/02/02 05:20:07;;;;;;;13.98;2.60;;;;;;;;;;4996292;28;20065;-65
2024/02/02 05:22:34;;;;;;;9.07;2.65;;;;;;;;;;4993954;28;20064;-65
2024/02/02 05:25:08;;;;;;;15.43;2.10;;;;;;;;;;4997386;28;20064;-65
2024/02/02 05:27:35;;;;;;;13.55;2.20;;;;;;;;;;4994084;28;20053;-65
2024/02/02 05:30:05;;;;;;;8.50;2.30;;;;;;;;;;4995941;28;20146;-65
2024/02/02 05:32:32;;;;;;;13.18;2.78;;;;;;;;;;4992361;28;20049;-65
2024/02/02 05:34:58;;;;;;;12.05;2.30;;;;;;;;;;4997238;28;20054;-65
2024/02/02 05:37:25;;;;;;;9.75;2.38;;;;;;;;;;4987950;28;20266;-65
2024/02/02 05:39:52;;;;;;;9.88;2.30;;;;;;;;;;4995187;28;20060;-65
2024/02/02 05:42:21;;;;;;;6.38;1.85;;;;;;;;;;4989378;28;20048;-65
2024/02/02 05:44:48;;;;;;;13.52;2.45;;;;;;;;;;4994192;28;20197;-64
2024/02/02 05:47:16;;;;;;;14.57;2.17;;;;;;;;;;4995273;28;20061;-65
2024/02/02 05:49:43;;;;;;;11.27;2.22;;;;;;;;;;4996594;28;20080;-67
2024/02/02 05:52:10;;;;;;;11.07;1.85;;;;;;;;;;4987219;28;20061;-66
2024/02/02 05:54:37;;;;;;;19.98;3.15;;;;;;;;;;4994292;28;20052;-65
2024/02/02 05:57:04;;;;;;;16.77;3.88;;;;;;;;;;4990300;28;20127;-65
2024/02/02 05:59:31;;;;;;;9.23;1.88;;;;;;;;;;4992993;28;20057;-66
2024/02/02 06:01:58;;;;;;;12.05;2.30;;;;;;;;;;4972110;28;20069;-65
2024/02/02 06:04:27;;;;;;;10.93;2.00;;;;;;;;;;4989229;28;20054;-65
2024/02/02 06:06:53;;;;;;;;;;;;;;;;;;5021194;28;20116;-65
2024/02/02 06:09:20;;;;;;;10.90;2.42;;;;;;;;;;4976326;28;19929;-66
2024/02/02 06:11:47;;;;;;;8.38;1.98;;;;;;;;;;4979192;28;20050;-66
2024/02/02 06:14:14;;;;;;;11.02;1.98;;;;;;;;;;4995452;28;20217;-67
2024/02/02 06:16:41;;;;;;;10.77;2.13;;;;;;;;;;4990135;28;20258;-65
2024/02/02 06:19:08;;;;;;;11.57;2.17;;;;;;;;;;4983011;28;20057;-66
2024/02/02 06:21:36;;;;;;;16.00;2.35;;;;;;;;;;4982796;28;20060;-66
2024/02/02 06:24:04;;;;;;;10.95;2.20;;;;;;;;;;5015382;28;20136;-64
2024/02/02 06:26:30;;;;;;;11.10;2.30;;;;;;;;;;4985227;28;20053;-64
2024/02/02 06:28:57;;;;;;;15.45;3.22;;;;;;;;;;5003239;28;20046;-65
2024/02/02 06:31:25;;;;;;;13.27;3.55;;;;;;;;;;4948380;28;20058;-67
2024/02/02 06:33:52;;;;;;;4.93;2.08;;;;;;;;;;4996443;28;21043;-65
2024/02/02 06:36:24;;;;;;;9.05;1.88;;;;;;;;;;4982389;28;20088;-64
2024/02/02 06:38:52;;;;;;;16.27;2.50;;;;;;;;;;4986217;28;20081;-65
2024/02/02 06:41:19;;;;;;;13.32;2.63;;;;;;;;;;4973263;28;20058;-65
2024/02/02 06:43:46;;;;;;;7.97;2.28;;;;;;;;;;4991548;28;20062;-65
2024/02/02 06:46:13;;;;;;;13.02;2.47;;;;;;;;;;4995101;28;20050;-65
2024/02/02 06:48:40;;;;;;;14.27;2.33;;;;;;;;;;4985441;28;20160;-65
2024/02/02 06:51:11;;;;;;;12.63;1.85;;;;;;;;;;4987155;28;20065;-65
2024/02/02 06:53:38;;;;;;;12.10;2.72;;;;;;;;;;4986872;28;20049;-65
2024/02/02 06:56:28;;;;;;;14.52;3.75;;;;;;;;;;4992679;28;20057;-65
2024/02/02 06:58:54;;;;;;;8.18;1.98;;;;;;;;;;4991851;28;20088;-66
2024/02/02 07:01:22;;;;;;;30.90;2.85;;;;;;;;;;4983898;28;20077;-65
2024/02/02 07:03:49;;;;;;;7.78;2.33;;;;;;;;;;4991415;28;20112;-65
2024/02/02 07:06:20;;;;;;;16.33;2.20;;;;;;;;;;4990658;28;20054;-65
2024/02/02 07:08:47;;;;;;;14.25;2.50;;;;;;;;;;4979021;28;20054;-65
2024/02/02 07:11:54;;;;;;;9.65;2.10;;;;;;;;;;4988508;28;20054;-66
2024/02/02 07:14:44;;;;;;;15.18;2.80;;;;;;;;;;4973250;28;20108;-66
2024/02/02 07:17:22;;;;;;;13.68;2.90;;;;;;;;;;4990269;28;20066;-64
2024/02/02 07:19:49;;;;;;;9.85;2.70;;;;;;;;;;4993468;28;20054;-64
2024/02/02 07:22:32;;;;;;;11.63;2.47;;;;;;;;;;4981520;28;20050;-65
2024/02/02 07:24:59;;;;;;;10.98;2.53;;;;;;;;;;4993422;28;20049;-65
2024/02/02 07:27:56;;;;;;;14.45;2.45;;;;;;;;;;4994566;28;20165;-65
2024/02/02 07:30:53;;;;;;;12.98;2.67;;;;;;;;;;4997901;28;20046;-66
2024/02/02 07:33:27;;;;;;;9.05;2.55;;;;;;;;;;4959979;28;20057;-65
2024/02/02 07:35:58;;;;;;;3.25;1.13;;;;;;;;;;5002251;28;20041;-64
2024/02/02 07:38:44;;;;;;;8.95;3.13;;;;;;;;;;4998047;28;20070;-65
2024/02/02 07:41:14;;;;;;;16.38;2.67;;;;;;;;;;4967295;28;20077;-68
2024/02/02 07:43:43;;;;;;;15.80;2.88;;;;;;;;;;4981306;28;20068;-64
2024/02/02 07:46:10;;;;;;;15.18;3.30;;;;;;;;;;4997504;28;20088;-66
2024/02/02 07:48:37;;;;;;;8.20;1.90;;;;;;;;;;4998945;28;20054;-67
2024/02/02 07:51:06;;;;;;;15.15;3.03;;;;;;;;;;4993265;28;20054;-68
2024/02/02 07:53:33;;;;;;;;;;;;;;;;;;4980556;28;20049;-64
2024/02/02 07:56:02;;;;;;;12.27;2.88;;;;;;;;;;5027714;28;19925;-67
2024/02/02 07:58:29;;;;;;;9.73;2.97;;;;;;;;;;4990242;28;20066;-67
2024/02/02 08:00:58;;;;;;;11.15;3.47;;;;;;;;;;4987500;28;20082;-65
2024/02/02 08:03:26;;;;;;;13.45;3.00;;;;;;;;;;4916371;28;20062;-66
2024/02/02 08:05:52;;;;;;;24.05;4.32;;;;;;;;;;4979544;28;20062;-66
2024/02/02 08:08:19;;;;;;;16.00;3.28;;;;;;;;;;4980936;28;20058;-66
2024/02/02 08:10:49;;;;;;;11.60;3.45;;;;;;;;;;4982482;28;20133;-68
2024/02/02 08:13:18;;;;;;;12.40;2.70;;;;;;;;;;4966017;28;20053;-67
2024/02/02 08:15:45;;;;;;;9.13;3.47;;;;;;;;;;4997768;28;20128;-64
2024/02/02 08:18:15;;;;;;;14.65;3.95;;;;;;;;;;4995315;28;20058;-66
2024/02/02 08:20:46;;;;;;;13.27;3.88;;;;;;;;;;4988806;28;20131;-65
2024/02/02 08:23:16;;;;;;;14.68;3.75;;;;;;;;;;4936439;28;20209;-66
2024/02/02 08:25:43;;;;;;;17.70;3.50;;;;;;;;;;4999291;28;20064;-65
2024/02/02 08:28:10;;;;;;;17.27;3.65;;;;;;;;;;5000955;28;20080;-66
2024/02/02 08:30:37;;;;;;;10.65;2.75;;;;;;;;;;4998505;28;20050;-66
2024/02/02 08:33:06;;;;;;;11.10;4.43;;;;;;;;;;4959548;28;20116;-67
2024/02/02 08:35:35;;;;;;;21.83;5.07;;;;;;;;;;4995464;28;20072;-65
2024/02/02 08:38:02;;;;;;;;;;;;;;;;;;4997397;28;20065;-66
2024/02/02 08:40:37;;;;;;;15.80;3.22;;;;;;;;;;4997980;28;19933;-66
2024/02/02 08:43:06;;;;;;;13.32;3.95;;;;;;;;;;4985303;28;20042;-66
2024/02/02 08:46:14;;;;;;;18.05;3.97;;;;;;;;;;4971374;28;20117;-66
2024/02/02 08:48:44;;;;;;;13.90;3.90;;;;;;;;;;4978325;28;20057;-66
2024/02/02 08:51:39;;;;;;;22.98;4.18;;;;;;;;;;4973365;28;20065;-66
2024/02/02 08:54:33;;;;;;;11.70;2.92;;;;;;;;;;4993346;28;20046;-65
2024/02/02 08:57:25;;;;;;;10.30;2.40;;;;;;;;;;4990445;28;20050;-66
2024/02/02 08:59:53;;;;;;;9.98;2.88;;;;;;;;;;4988788;28;20054;-65
2024/02/02 09:02:46;;;;;;;17.60;3.72;;;;;;;;;;4985506;28;20050;-66
2024/02/02 09:05:20;;;;;;;13.63;3.53;;;;;;;;;;4981337;28;20054;-66
2024/02/02 09:07:53;;;;;;;13.38;3.35;;;;;;;;;;4993428;28;20046;-66
2024/02/02 09:10:57;;;;;;;13.82;3.17;;;;;;;;;;4997409;28;20053;-66
2024/02/02 09:13:26;;;;;;;13.02;4.05;;;;;;;;;;4970588;28;20081;-66
2024/02/02 09:15:53;;;;;;;15.38;3.55;;;;;;;;;;4999156;28;20340;-65
2024/02/02 09:18:31;;;;;;;16.40;5.00;;;;;;;;;;4988734;28;20132;-64
2024/02/02 09:20:59;;;;;;;12.52;4.00;;;;;;;;;;4995352;28;20050;-65
2024/02/02 09:23:27;;;;;;;18.00;4.03;;;;;;;;;;4962488;28;20124;-64
2024/02/02 09:25:56;;;;;;;18.35;3.90;;;;;;;;;;4985672;28;20080;-66
2024/02/02 09:28:38;;;;;;;17.08;4.35;;;;;;;;;;4991377;28;20165;-65
2024/02/02 09:31:15;;;;;;;12.32;3.72;;;;;;;;;;4991739;28;20050;-65
2024/02/02 09:33:47;;;;;;;16.38;4.05;;;;;;;;;;4980291;28;20076;-68
2024/02/02 09:36:14;;;;;;;21.50;5.00;;;;;;;;;;4985662;28;20082;-67
2024/02/02 09:38:54;;;;;;;16.60;4.37;;;;;;;;;;4998295;28;20052;-67
2024/02/02 09:41:47;;;;;;;10.77;3.65;;;;;;;;;;4977300;28;20053;-67
2024/02/02 09:44:27;;;;;;;9.93;3.30;;;;;;;;;;4988618;28;20058;-65
2024/02/02 09:47:09;;;;;;;16.40;4.47;;;;;;;;;;5000593;28;20054;-64
2024/02/02 09:49:47;;;;;;;16.60;4.60;;;;;;;;;;4991987;28;20193;-65
2024/02/02 09:52:28;;;;;;;14.55;3.75;;;;;;;;;;4963883;28;20058;-65
2024/02/02 09:55:07;;;;;;;14.55;4.50;;;;;;;;;;4986150;28;20109;-65
2024/02/02 09:57:40;;;;;;;12.10;3.95;;;;;;;;;;5002239;28;20058;-65
2024/02/02 10:00:16;;;;;;;21.75;5.03;;;;;;;;;;4997601;28;20127;-66
2024/02/02 10:02:56;;;;;;;23.40;4.85;;;;;;;;;;4984083;28;20050;-65
2024/02/02 10:05:33;;;;;;;16.85;4.15;;;;;;;;;;4994660;28;20059;-66
2024/02/02 10:08:19;;;;;;;16.40;4.00;;;;;;;;;;4983009;28;20069;-67
2024/02/02 10:10:59;;;;;;;25.30;5.13;;;;;;;;;;4994806;28;20050;-65
2024/02/02 10:13:39;;;;;;;17.27;4.90;;;;;;;;;;4992332;28;20261;-67
2024/02/02 10:16:28;;;;;;;12.93;4.35;;;;;;;;;;4990830;28;20053;-65
2024/02/02 10:19:24;;;;;;;17.90;4.63;;;;;;;;;;5009000;28;20049;-65
2024/02/02 10:22:05;;;;;;;20.65;4.22;;;;;;;;;;4982731;28;20060;-65
2024/02/02 10:24:47;;;;;;;23.95;5.78;;;;;;;;;;4982650;28;20073;-65
2024/02/02 10:27:33;;;;;;;25.55;5.80;;;;;;;;;;4978970;28;20057;-66
2024/02/02 10:30:10;;;;;;;18.88;4.57;;;;;;;;;;4996319;28;20081;-65
2024/02/02 10:32:55;;;;;;;15.05;5.10;;;;;;;;;;4978534;28;20050;-65
2024/02/02 10:35:32;;;;;;;15.55;4.07;;;;;;;;;;4984327;28;20092;-66
2024/02/02 10:38:07;;;;;;;26.13;5.18;;;;;;;;;;4987674;28;20124;-67
2024/02/02 10:40:41;;;;;;;20.42;5.07;;;;;;;;;;4994973;28;20058;-65
2024/02/02 10:43:29;;;;;;;18.55;5.03;;;;;;;;;;4980998;28;20063;-66
2024/02/02 10:46:08;;;;;;;13.70;5.45;;;;;;;;;;4997449;28;20057;-66
2024/02/02 10:49:02;;;;;;;18.65;4.32;;;;;;;;;;4985710;28;20053;-66
2024/02/02 10:51:39;;;;;;;21.80;6.07;;;;;;;;;;4984415;28;20089;-65
2024/02/02 10:54:23;;;;;;;14.98;5.25;;;;;;;;;;4980407;28;20053;-65
2024/02/02 10:57:08;;;;;;;12.25;3.85;;;;;;;;;;4983731;28;20050;-66
2024/02/02 10:59:47;;;;;;;10.10;3.83;;;;;;;;;;4986736;28;20055;-66
2024/02/02 11:02:24;;;;;;;13.10;4.57;;;;;;;;;;4943365;28;20077;-66
2024/02/02 11:05:06;;;;;;;25.42;5.63;;;;;;;;;;4975702;28;20050;-65
2024/02/02 11:07:42;;;;;;;12.55;4.68;;;;;;;;;;4972536;28;20058;-65
2024/02/02 11:10:15;;;;;;;25.63;6.38;;;;;;;;;;4976956;28;20108;-65
2024/02/02 11:12:50;;;;;;;14.45;4.28;;;;;;;;;;4972225;28;20054;-65
2024/02/02 11:15:38;;;;;;;18.58;5.25;;;;;;;;;;4994419;28;20144;-65
2024/02/02 11:18:17;;;;;;;17.20;5.50;;;;;;;;;;4987472;28;20112;-64
2024/02/02 11:21:09;;;;;;;18.27;5.50;;;;;;;;;;4995616;28;20054;-65
2024/02/02 11:23:41;;;;;;;16.42;5.93;;;;;;;;;;4948217;28;20117;-64
2024/02/02 11:26:26;;;;;;;24.00;6.72;;;;;;;;;;4966859;28;20061;-64
2024/02/02 11:29:06;;;;;;;13.75;5.60;;;;;;;;;;4968902;28;20058;-65
2024/02/02 11:31:46;;;;;;;15.75;5.72;;;;;;;;;;4961114;28;20314;-65
2024/02/02 11:34:23;;;;;;;19.42;6.72;;;;;;;;;;4993975;28;20115;-66
2024/02/02 11:37:07;;;;;;;25.48;6.28;;;;;;;;;;4996752;28;20120;-67
2024/02/02 11:39:53;;;;;;;20.77;6.32;;;;;;;;;;4989316;28;20050;-66
2024/02/02 11:42:22;;;;;;;20.08;6.13;;;;;;;;;;4984273;28;20064;-66
2024/02/02 11:44:50;;;;;;;27.02;7.38;;;;;;;;;;4992103;28;20061;-65
2024/02/02 11:47:23;;;;;;;21.88;7.00;;;;;;;;;;4927693;28;20062;-65
2024/02/02 11:49:59;;;;;;;30.15;6.78;;;;;;;;;;4966906;28;20060;-65
2024/02/02 11:52:32;;;;;;;17.75;5.78;;;;;;;;;;5003543;28;20054;-65
2024/02/02 11:55:17;;;;;;;22.73;7.18;;;;;;;;;;5008713;28;20034;-66
2024/02/02 11:57:48;;;;;;;19.33;6.72;;;;;;;;;;4973030;28;20062;-66
2024/02/02 12:00:28;;;;;;;12.05;3.92;;;;;;;;;;4971027;28;20149;-65
2024/02/02 12:03:17;;;;;;;17.83;5.78;;;;;;;;;;4977074;28;20046;-65
2024/02/02 12:05:53;;;;;;;21.75;6.60;;;;;;;;;;4969532;28;20065;-64
2024/02/02 12:08:30;;;;;;;25.67;7.32;;;;;;;;;;4976928;28;20123;-65
2024/02/02 12:10:59;;;;;;;19.50;6.22;;;;;;;;;;4989671;28;20189;-65
2024/02/02 12:13:30;;;;;;;14.95;6.28;;;;;;;;;;4987669;28;20082;-65
2024/02/02 12:15:57;;;;;;;20.55;6.90;;;;;;;;;;4990762;28;20119;-64
2024/02/02 12:18:26;;;;;;;17.02;5.53;;;;;;;;;;4986463;28;20117;-64
2024/02/02 12:20:53;;;;;;;14.93;5.93;;;;;;;;;;4991445;28;20046;-65
2024/02/02 12:23:20;;;;;;;27.77;7.78;;;;;;;;;;4985148;28;20057;-65
2024/02/02 12:25:51;;;;;;;22.98;6.38;;;;;;;;;;4991803;28;20058;-64
2024/02/02 12:28:18;;;;;;;26.30;7.05;;;;;;;;;;4981288;28;20050;-64
2024/02/02 12:30:44;;;;;;;21.85;6.47;;;;;;;;;;4990966;28;20058;-64
2024/02/02 12:33:12;;;;;;;19.73;6.78;;;;;;;;;;4984835;28;20066;-64
2024/02/02 12:35:42;;;;;;;17.40;5.88;;;;;;;;;;4996104;28;20046;-64
2024/02/02 12:38:22;;;;;;;24.70;5.57;;;;;;;;;;4983697;28;20073;-64
2024/02/02 12:40:49;;;;;;;23.17;6.93;;;;;;;;;;4997490;28;20049;-66
2024/02/02 12:43:24;;;;;;;21.13;6.93;;;;;;;;;;4986737;28;20113;-66
2024/02/02 12:45:51;;;;;;;22.63;6.97;;;;;;;;;;4990311;28;20053;-66
2024/02/02 12:48:20;;;;;;;19.02;7.50;;;;;;;;;;4939045;28;20145;-66
2024/02/02 12:50:50;;;;;;;20.10;6.88;;;;;;;;;;5008195;28;20053;-66
2024/02/02 12:53:19;;;;;;;20.92;6.30;;;;;;;;;;5001097;28;20078;-66
2024/02/02 12:55:46;;;;;;;21.15;7.53;;;;;;;;;;4990413;28;20038;-66
2024/02/02 12:58:13;;;;;;;22.25;6.80;;;;;;;;;;4990879;28;20064;-66
2024/02/02 13:00:41;;;;;;;30.50;7.22;;;;;;;;;;5001336;28;20053;-66
2024/02/02 13:03:09;;;;;;;29.45;7.70;;;;;;;;;;4993619;28;20072;-64
2024/02/02 13:05:37;;;;;;;17.20;6.40;;;;;;;;;;4990368;28;20062;-65
2024/02/02 13:08:08;;;;;;;24.95;6.80;;;;;;;;;;4993749;28;20052;-65
2024/02/02 13:10:37;;;;;;;28.48;8.90;;;;;;;;;;4998173;28;20049;-65
2024/02/02 13:13:14;;;;;;;27.15;9.13;;;;;;;;;;4993666;28;20193;-64
2024/02/02 13:15:42;;;;;;;26.23;9.07;;;;;;;;;;4991288;28;20050;-64
2024/02/02 13:18:16;;;;;;;28.02;9.50;;;;;;;;;;4987693;28;20058;-66
2024/02/02 13:20:45;;;;;;;24.75;8.77;;;;;;;;;;4988690;28;20053;-65
2024/02/02 13:23:20;;;;;;;32.38;9.52;;;;;;;;;;4990596;28;20054;-66
2024/02/02 13:25:53;;;;;;;31.30;9.50;;;;;;;;;;4996386;28;20061;-64
2024/02/02 13:28:20;;;;;;;20.65;7.50;;;;;;;;;;4981908;28;20050;-64
2024/02/02 13:30:57;;;;;;;25.15;9.10;;;;;;;;;;4983292;28;20045;-64
2024/02/02 13:33:29;;;;;;;28.17;8.57;;;;;;;;;;4987954;28;20149;-65
2024/02/02 13:35:58;;;;;;;36.25;12.20;;;;;;;;;;4994057;28;20064;-66
2024/02/02 13:38:31;;;;;;;31.95;10.27;;;;;;;;;;4982778;28;20061;-67
2024/02/02 13:40:59;;;;;;;25.52;8.55;;;;;;;;;;4995129;28;20181;-66
2024/02/02 13:43:26;;;;;;;25.83;7.93;;;;;;;;;;4993053;28;20049;-67
2024/02/02 13:45:53;;;;;;;33.30;11.48;;;;;;;;;;5001535;28;20042;-66
2024/02/02 13:48:23;;;;;;;25.38;9.63;;;;;;;;;;4992769;28;20053;-66
2024/02/02 13:50:59;;;;;;;31.33;10.10;;;;;;;;;;4994512;28;20066;-65
2024/02/02 13:53:28;;;;;;;29.70;10.00;;;;;;;;;;4998002;28;20146;-64
2024/02/02 13:55:57;;;;;;;31.13;10.18;;;;;;;;;;4986390;28;20053;-65
2024/02/02 13:58:24;;;;;;;24.60;8.77;;;;;;;;;;4972711;28;20053;-65
2024/02/02 14:00:51;;;;;;;32.10;10.05;;;;;;;;;;4994890;28;20120;-65
2024/02/02 14:03:21;;;;;;;27.88;8.82;;;;;;;;;;4980248;28;20062;-65
2024/02/02 14:05:48;;;;;;;28.15;9.00;;;;;;;;;;4994847;28;20065;-66
2024/02/02 14:08:17;;;;;;;25.40;9.40;;;;;;;;;;4984290;28;20077;-64
2024/02/02 14:10:48;;;;;;;34.92;8.80;;;;;;;;;;4997541;28;20328;-65
2024/02/02 14:13:18;;;;;;;24.25;8.85;;;;;;;;;;4991715;28;20054;-66
2024/02/02 14:15:49;;;;;;;37.60;10.93;;;;;;;;;;4995513;28;20057;-64
2024/02/02 14:18:18;;;;;;;27.05;8.35;;;;;;;;;;4987645;28;20046;-65
2024/02/02 14:20:45;;;;;;;32.08;9.82;;;;;;;;;;4993356;28;20053;-65
2024/02/02 14:23:13;;;;;;;23.63;7.53;;;;;;;;;;4988404;28;20116;-66
2024/02/02 14:25:40;;;;;;;27.03;9.43;;;;;;;;;;4984779;28;20053;-65
2024/02/02 14:28:16;;;;;;;24.58;8.85;;;;;;;;;;4967858;28;20053;-65
2024/02/02 14:30:43;;;;;;;28.08;9.63;;;;;;;;;;5002003;28;20053;-64
2024/02/02 14:33:12;;;;;;;19.30;7.72;;;;;;;;;;4987857;28;20042;-65
2024/02/02 14:35:39;;;;;;;;;;;;;;;;;;4992040;28;20046;-65
2024/02/02 14:38:08;;;;;;;21.67;7.45;;;;;;;;;;4994695;28;19932;-64
2024/02/02 14:40:36;;;;;;;28.92;10.10;;;;;;;;;;4997805;28;20054;-64
2024/02/02 14:43:04;;;;;;;22.65;8.98;;;;;;;;;;4985913;28;20072;-66
2024/02/02 14:45:35;;;;;;;24.17;8.43;;;;;;;;;;4994614;28;20112;-65
2024/02/02 14:48:03;;;;;;;23.85;10.13;;;;;;;;;;4992379;28;20053;-65
2024/02/02 14:50:30;;;;;;;19.45;8.77;;;;;;;;;;4999197;28;20176;-65
2024/02/02 14:52:57;;;;;;;26.25;9.00;;;;;;;;;;4999056;28;20054;-64
2024/02/02 14:55:24;;;;;;;18.67;6.57;;;;;;;;;;4989463;28;20132;-65
2024/02/02 14:57:51;;;;;;;18.85;6.47;;;;;;;;;;4990783;28;20073;-65
2024/02/02 15:00:28;;;;;;;15.15;5.20;;;;;;;;;;5004885;28;20061;-64